createdAt,value
2023-12-11T00:00:59.922Z,91.20
2023-12-11T00:03:22.776Z,90.91
2023-12-11T00:05:45.638Z,90.98
2023-12-11T00:08:08.517Z,91.48
2023-12-11T00:10:31.148Z,91.73
2023-12-11T00:12:53.904Z,92.08
2023-12-11T00:15:16.750Z,92.19
2023-12-11T00:17:39.701Z,91.99
2023-12-11T00:20:02.491Z,92.07
2023-12-11T00:22:26.129Z,92.19
2023-12-11T00:24:49.020Z,92.58
2023-12-11T00:27:13.222Z,92.89
2023-12-11T00:29:37.465Z,93.25
2023-12-11T00:32:00.254Z,93.29
2023-12-11T00:34:23.263Z,92.97
2023-12-11T00:36:47.263Z,92.82
2023-12-11T00:39:09.981Z,92.96
2023-12-11T00:41:32.779Z,92.82
2023-12-11T00:43:55.545Z,92.51
2023-12-11T00:46:28.372Z,92.60
2023-12-11T00:48:51.775Z,92.67
2023-12-11T00:51:21.810Z,92.66
2023-12-11T00:53:48.107Z,92.89
2023-12-11T00:56:10.870Z,92.92
2023-12-11T00:58:33.578Z,93.05
2023-12-11T01:00:56.452Z,93.02
2023-12-11T01:03:19.328Z,92.69
2023-12-11T01:05:42.949Z,92.76
2023-12-11T01:08:05.778Z,92.88
2023-12-11T01:10:28.411Z,92.86
2023-12-11T01:12:51.370Z,92.84
2023-12-11T01:15:14.161Z,92.77
2023-12-11T01:17:40.496Z,92.69
2023-12-11T01:20:04.328Z,92.68
2023-12-11T01:22:27.357Z,92.38
2023-12-11T01:24:50.180Z,92.31
2023-12-11T01:27:12.855Z,91.99
2023-12-11T01:29:35.587Z,91.98
2023-12-11T01:31:58.835Z,92.21
2023-12-11T01:34:21.659Z,92.28
2023-12-11T01:36:44.565Z,92.40
2023-12-11T01:39:07.325Z,92.56
2023-12-11T01:41:29.994Z,92.51
2023-12-11T01:43:56.678Z,92.78
2023-12-11T01:46:20.204Z,92.75
2023-12-11T01:48:44.223Z,92.88
2023-12-11T01:51:10.511Z,92.77
2023-12-11T01:53:34.530Z,92.77
2023-12-11T01:55:57.801Z,92.67
2023-12-11T01:58:20.815Z,92.42
2023-12-11T02:00:43.631Z,92.59
2023-12-11T02:03:06.732Z,92.78
2023-12-11T02:05:29.432Z,92.86
2023-12-11T02:07:52.185Z,92.86
2023-12-11T02:10:15.037Z,92.93
2023-12-11T02:12:38.918Z,92.88
2023-12-11T02:15:01.577Z,92.72
2023-12-11T02:17:24.291Z,92.46
2023-12-11T02:19:47.024Z,92.18
2023-12-11T02:22:10.025Z,92.30
2023-12-11T02:24:40.791Z,92.34
2023-12-11T02:27:04.196Z,92.19
2023-12-11T02:29:27.028Z,91.92
2023-12-11T02:31:49.781Z,91.84
2023-12-11T02:34:12.507Z,91.88
2023-12-11T02:36:35.339Z,91.62
2023-12-11T02:38:58.999Z,91.60
2023-12-11T02:41:21.648Z,91.70
2023-12-11T02:43:44.942Z,91.80
2023-12-11T02:46:07.684Z,91.63
2023-12-11T02:48:31.194Z,91.43
2023-12-11T02:50:54.001Z,91.38
2023-12-11T02:53:16.715Z,91.41
2023-12-11T02:55:39.489Z,91.49
2023-12-11T02:58:04.218Z,91.39
2023-12-11T03:00:28.036Z,91.40
2023-12-11T03:02:50.746Z,91.42
2023-12-11T03:05:13.454Z,91.08
2023-12-11T03:07:36.042Z,90.98
2023-12-11T03:09:58.691Z,90.73
2023-12-11T03:12:21.745Z,91.01
2023-12-11T03:14:44.811Z,91.17
2023-12-11T03:17:07.519Z,91.19
2023-12-11T03:19:30.353Z,90.98
2023-12-11T03:21:57.144Z,91.47
2023-12-11T03:24:19.910Z,91.57
2023-12-11T03:26:42.612Z,91.42
2023-12-11T03:29:05.358Z,91.39
2023-12-11T03:31:28.009Z,91.56
2023-12-11T03:33:50.743Z,91.69
2023-12-11T03:36:19.401Z,91.37
2023-12-11T03:38:42.292Z,91.46
2023-12-11T03:41:05.277Z,91.24
2023-12-11T03:43:27.967Z,91.35
2023-12-11T03:45:50.643Z,91.52
2023-12-11T03:48:19.323Z,91.51
2023-12-11T03:50:42.507Z,91.36
2023-12-11T03:53:05.164Z,91.28
2023-12-11T03:55:27.819Z,91.48
2023-12-11T03:57:50.603Z,91.43
2023-12-11T04:00:16.233Z,91.23
2023-12-11T04:02:39.173Z,91.09
2023-12-11T04:05:01.785Z,91.23
2023-12-11T04:07:24.591Z,91.44
2023-12-11T04:09:47.328Z,91.33
2023-12-11T04:12:13.892Z,91.50
2023-12-11T04:14:36.813Z,91.71
2023-12-11T04:16:59.639Z,91.57
2023-12-11T04:19:22.472Z,91.65
2023-12-11T04:21:45.246Z,91.55
2023-12-11T04:24:14.877Z,91.50
2023-12-11T04:26:38.107Z,91.44
2023-12-11T04:29:00.809Z,91.17
2023-12-11T04:31:24.737Z,91.18
2023-12-11T04:33:47.583Z,91.27
2023-12-11T04:36:15.645Z,91.44
2023-12-11T04:38:41.437Z,91.67
2023-12-11T04:41:04.509Z,91.86
2023-12-11T04:43:30.836Z,92.02
2023-12-11T04:45:54.639Z,92.05
2023-12-11T04:48:18.061Z,92.12
2023-12-11T04:50:41.294Z,92.18
2023-12-11T04:53:04.168Z,91.82
2023-12-11T04:55:27.218Z,91.59
2023-12-11T04:57:50.412Z,91.28
2023-12-11T05:00:33.716Z,91.08
2023-12-11T05:02:56.448Z,91.31
2023-12-11T05:05:19.232Z,91.28
2023-12-11T05:07:41.992Z,91.58
2023-12-11T05:10:05.147Z,91.67
2023-12-11T05:12:27.895Z,91.63
2023-12-11T05:14:50.954Z,91.54
2023-12-11T05:17:13.713Z,91.59
2023-12-11T05:19:37.198Z,91.73
2023-12-11T05:22:00.321Z,91.94
2023-12-11T05:24:23.580Z,92.15
2023-12-11T05:26:46.374Z,92.24
2023-12-11T05:29:09.031Z,92.10
2023-12-11T05:31:32.449Z,91.76
2023-12-11T05:33:55.360Z,91.34
2023-12-11T05:36:18.646Z,91.35
2023-12-11T05:38:41.746Z,91.22
2023-12-11T05:41:04.832Z,91.28
2023-12-11T05:43:27.672Z,91.54
2023-12-11T05:45:50.409Z,91.91
2023-12-11T05:48:15.938Z,92.30
2023-12-11T05:50:41.199Z,92.52
2023-12-11T05:53:04.322Z,92.59
2023-12-11T05:55:26.939Z,92.40
2023-12-11T05:57:49.675Z,92.11
2023-12-11T06:00:15.499Z,92.02
2023-12-11T06:02:39.042Z,92.08
2023-12-11T06:05:01.830Z,91.94
2023-12-11T06:07:25.003Z,91.91
2023-12-11T06:09:47.800Z,91.97
2023-12-11T06:12:11.242Z,92.07
2023-12-11T06:14:34.393Z,92.22
2023-12-11T06:16:57.141Z,92.27
2023-12-11T06:19:19.988Z,91.92
2023-12-11T06:21:43.360Z,91.70
2023-12-11T06:24:09.089Z,91.76
2023-12-11T06:26:34.174Z,91.79
2023-12-11T06:28:58.893Z,91.75
2023-12-11T06:31:21.714Z,91.88
2023-12-11T06:33:44.675Z,91.91
2023-12-11T06:36:12.356Z,91.77
2023-12-11T06:38:35.773Z,91.66
2023-12-11T06:41:00.344Z,91.41
2023-12-11T06:43:23.711Z,91.91
2023-12-11T06:45:46.575Z,92.13
2023-12-11T06:48:11.091Z,91.99
2023-12-11T06:50:36.700Z,91.97
2023-12-11T06:52:59.510Z,92.04
2023-12-11T06:55:22.296Z,91.90
2023-12-11T06:57:45.148Z,91.87
2023-12-11T07:00:11.614Z,92.01
2023-12-11T07:02:38.096Z,91.83
2023-12-11T07:05:02.434Z,91.68
2023-12-11T07:07:26.040Z,91.56
2023-12-11T07:09:49.916Z,91.37
2023-12-11T07:12:22.865Z,91.04
2023-12-11T07:14:50.754Z,90.99
2023-12-11T07:17:13.778Z,91.06
2023-12-11T07:19:36.881Z,90.98
2023-12-11T07:21:59.694Z,90.99
2023-12-11T07:24:25.728Z,90.57
2023-12-11T07:26:48.776Z,90.39
2023-12-11T07:29:12.284Z,89.90
2023-12-11T07:31:36.273Z,89.51
2023-12-11T07:34:01.308Z,89.52
2023-12-11T07:36:28.859Z,89.34
2023-12-11T07:38:53.253Z,88.75
2023-12-11T07:41:25.084Z,88.76
2023-12-11T07:43:48.328Z,89.23
2023-12-11T07:46:20.655Z,89.43
2023-12-11T07:48:43.494Z,89.50
2023-12-11T07:51:07.046Z,89.46
2023-12-11T07:53:29.876Z,89.52
2023-12-11T07:55:54.102Z,89.61
2023-12-11T07:58:17.057Z,89.40
2023-12-11T08:00:40.090Z,89.67
2023-12-11T08:03:09.074Z,90.01
2023-12-11T08:05:37.087Z,90.02
2023-12-11T08:08:06.784Z,90.02
2023-12-11T08:10:34.066Z,90.33
2023-12-11T08:12:58.925Z,90.09
2023-12-11T08:15:22.210Z,89.63
2023-12-11T08:17:45.372Z,89.90
2023-12-11T08:20:13.252Z,89.70
2023-12-11T08:22:36.989Z,89.45
2023-12-11T08:24:59.697Z,89.27
2023-12-11T08:27:22.549Z,89.37
2023-12-11T08:29:46.258Z,89.35
2023-12-11T08:32:10.940Z,89.23
2023-12-11T08:34:34.296Z,89.09
2023-12-11T08:36:57.686Z,88.96
2023-12-11T08:39:21.077Z,88.88
2023-12-11T08:41:44.060Z,88.70
2023-12-11T08:44:07.195Z,88.41
2023-12-11T08:46:29.947Z,88.65
2023-12-11T08:48:53.022Z,88.44
2023-12-11T08:51:24.685Z,88.42
2023-12-11T08:53:50.613Z,88.24
2023-12-11T08:56:15.382Z,87.60
2023-12-11T08:58:38.568Z,87.47
2023-12-11T09:01:02.088Z,88.22
2023-12-11T09:03:25.045Z,87.71
2023-12-11T09:05:48.732Z,87.65
2023-12-11T09:08:14.909Z,86.88
2023-12-11T09:10:37.819Z,85.88
2023-12-11T09:13:00.753Z,84.91
2023-12-11T09:15:23.610Z,84.60
2023-12-11T09:17:46.632Z,84.88
2023-12-11T09:20:12.473Z,85.78
2023-12-11T09:22:37.318Z,85.91
2023-12-11T09:25:01.377Z,86.32
2023-12-11T09:27:24.779Z,86.71
2023-12-11T09:29:50.606Z,86.65
2023-12-11T09:32:13.697Z,86.68
2023-12-11T09:34:36.664Z,86.51
2023-12-11T09:36:59.682Z,85.15
2023-12-11T09:39:23.759Z,85.19
2023-12-11T09:41:46.795Z,85.04
2023-12-11T09:44:30.667Z,85.35
2023-12-11T09:46:58.839Z,86.02
2023-12-11T09:49:24.491Z,86.56
2023-12-11T09:51:48.334Z,86.23
2023-12-11T09:54:13.449Z,85.96
2023-12-11T09:56:37.230Z,86.14
2023-12-11T09:59:03.814Z,85.84
2023-12-11T10:01:26.889Z,85.70
2023-12-11T10:03:49.782Z,85.35
2023-12-11T10:06:16.804Z,85.94
2023-12-11T10:08:45.377Z,85.85
2023-12-11T10:11:15.457Z,85.49
2023-12-11T10:13:39.082Z,85.82
2023-12-11T10:16:01.960Z,86.14
2023-12-11T10:18:25.372Z,85.93
2023-12-11T10:20:54.980Z,85.21
2023-12-11T10:23:20.234Z,84.98
2023-12-11T10:25:45.644Z,84.43
2023-12-11T10:28:10.827Z,83.68
2023-12-11T10:30:33.666Z,83.76
2023-12-11T10:33:03.016Z,83.74
2023-12-11T10:35:26.089Z,83.93
2023-12-11T10:37:49.153Z,84.11
2023-12-11T10:40:13.689Z,83.76
2023-12-11T10:42:36.552Z,84.17
2023-12-11T10:44:59.854Z,84.38
2023-12-11T10:47:24.488Z,84.57
2023-12-11T10:49:47.367Z,84.89
2023-12-11T10:52:10.760Z,84.97
2023-12-11T10:54:36.892Z,85.42
2023-12-11T10:57:02.759Z,85.50
2023-12-11T10:59:26.315Z,85.53
2023-12-11T11:01:51.639Z,85.63
2023-12-11T11:04:16.104Z,85.88
2023-12-11T11:07:30.235Z,86.08
2023-12-11T11:10:12.709Z,85.41
2023-12-11T11:12:52.298Z,85.40
2023-12-11T11:15:25.900Z,85.19
2023-12-11T11:21:12.494Z,84.55
2023-12-11T11:23:43.896Z,85.19
2023-12-11T11:26:36.924Z,85.44
2023-12-11T11:29:03.599Z,86.11
2023-12-11T11:31:50.720Z,85.69
2023-12-11T11:34:14.068Z,85.82
2023-12-11T11:36:50.887Z,85.89
2023-12-11T11:39:14.519Z,85.35
2023-12-11T11:41:37.462Z,85.54
2023-12-11T11:44:01.827Z,85.60
2023-12-11T11:46:25.964Z,85.77
2023-12-11T11:48:48.937Z,85.83
2023-12-11T11:51:11.960Z,85.56
2023-12-11T11:53:34.979Z,85.31
2023-12-11T11:56:02.257Z,85.10
2023-12-11T11:58:25.369Z,85.07
2023-12-11T12:00:51.032Z,84.48
2023-12-11T12:03:14.625Z,84.56
2023-12-11T12:05:58.073Z,84.01
2023-12-11T12:08:26.845Z,83.74
2023-12-11T12:10:50.762Z,83.73
2023-12-11T12:13:13.686Z,83.52
2023-12-11T12:15:56.133Z,83.39
2023-12-11T12:18:19.391Z,83.27
2023-12-11T12:20:43.722Z,82.74
2023-12-11T12:23:09.263Z,82.34
2023-12-11T12:25:33.146Z,82.72
2023-12-11T12:28:00.120Z,82.69
2023-12-11T12:30:23.951Z,82.37
2023-12-11T12:32:53.674Z,82.63
2023-12-11T12:35:21.360Z,82.36
2023-12-11T12:37:44.399Z,82.32
2023-12-11T12:40:09.011Z,82.29
2023-12-11T12:42:32.171Z,82.19
2023-12-11T12:44:55.081Z,82.18
2023-12-11T12:47:17.886Z,81.69
2023-12-11T12:49:40.958Z,81.70
2023-12-11T12:52:04.058Z,81.18
2023-12-11T12:54:27.147Z,80.95
2023-12-11T12:57:00.521Z,82.31
2023-12-11T12:59:24.827Z,82.85
2023-12-11T13:01:47.771Z,83.00
2023-12-11T13:04:12.766Z,83.66
2023-12-11T13:06:56.632Z,84.30
2023-12-11T13:09:33.684Z,84.39
2023-12-11T13:11:56.488Z,83.98
2023-12-11T13:14:20.138Z,83.42
2023-12-11T13:16:47.199Z,83.07
2023-12-11T13:19:12.619Z,83.04
2023-12-11T13:21:35.736Z,83.09
2023-12-11T13:24:00.438Z,82.39
2023-12-11T13:26:25.305Z,81.28
2023-12-11T13:28:47.944Z,81.14
2023-12-11T13:31:10.692Z,80.47
2023-12-11T13:33:35.493Z,80.56
2023-12-11T13:35:59.601Z,80.78
2023-12-11T13:38:22.316Z,81.15
2023-12-11T13:40:45.088Z,81.39
2023-12-11T13:43:07.855Z,81.34
2023-12-11T13:45:30.549Z,81.55
2023-12-11T13:47:53.184Z,81.98
2023-12-11T13:50:16.172Z,82.33
2023-12-11T13:52:39.025Z,82.38
2023-12-11T13:55:02.079Z,82.17
2023-12-11T13:57:24.785Z,82.84
2023-12-11T13:59:47.972Z,82.50
2023-12-11T14:02:10.844Z,82.97
2023-12-11T14:04:33.590Z,83.01
2023-12-11T14:06:57.806Z,83.71
2023-12-11T14:09:21.565Z,84.35
2023-12-11T14:11:44.416Z,83.95
2023-12-11T14:14:07.494Z,84.17
2023-12-11T14:16:30.270Z,84.35
2023-12-11T14:18:53.990Z,84.74
2023-12-11T14:21:18.609Z,85.32
2023-12-11T14:23:41.419Z,85.78
2023-12-11T14:26:04.549Z,85.90
2023-12-11T14:28:27.593Z,85.88
2023-12-11T14:30:51.706Z,85.66
2023-12-11T14:33:15.056Z,85.33
2023-12-11T14:35:38.079Z,85.40
2023-12-11T14:38:01.148Z,85.56
2023-12-11T14:40:24.244Z,85.87
2023-12-11T14:42:47.147Z,86.01
2023-12-11T14:45:10.639Z,85.83
2023-12-11T14:47:33.917Z,86.03
2023-12-11T14:49:58.574Z,86.27
2023-12-11T14:52:21.484Z,86.70
2023-12-11T14:54:44.805Z,86.53
2023-12-11T14:57:07.674Z,86.85
2023-12-11T14:59:30.828Z,87.24
2023-12-11T15:01:53.631Z,87.41
2023-12-11T15:04:16.424Z,87.69
2023-12-11T15:06:39.566Z,87.87
2023-12-11T15:09:02.237Z,87.79
2023-12-11T15:11:28.566Z,87.71
2023-12-11T15:13:52.029Z,87.40
2023-12-11T15:16:15.171Z,87.06
2023-12-11T15:18:38.020Z,86.92
2023-12-11T15:21:00.770Z,86.76
2023-12-11T15:23:23.492Z,86.36
2023-12-11T15:25:47.345Z,86.47
2023-12-11T15:28:10.186Z,86.46
2023-12-11T15:30:32.922Z,86.54
2023-12-11T15:32:55.622Z,86.52
2023-12-11T15:35:18.403Z,86.55
2023-12-11T15:37:41.275Z,86.87
2023-12-11T15:40:08.393Z,87.02
2023-12-11T15:42:32.891Z,87.29
2023-12-11T15:44:55.499Z,87.28
2023-12-11T15:47:18.556Z,87.38
2023-12-11T15:49:41.440Z,87.31
2023-12-11T15:52:05.425Z,87.24
2023-12-11T15:54:28.088Z,87.35
2023-12-11T15:56:50.720Z,87.38
2023-12-11T15:59:13.489Z,87.13
2023-12-11T16:01:36.344Z,87.07
2023-12-11T16:03:59.342Z,86.67
2023-12-11T16:06:22.684Z,86.51
2023-12-11T16:08:46.511Z,86.49
2023-12-11T16:11:09.186Z,86.10
2023-12-11T16:13:31.956Z,85.84
2023-12-11T16:15:56.351Z,85.77
2023-12-11T16:18:19.819Z,86.00
2023-12-11T16:20:42.724Z,85.97
2023-12-11T16:23:05.408Z,86.05
2023-12-11T16:25:28.413Z,85.90
2023-12-11T16:27:51.356Z,85.97
2023-12-11T16:30:15.853Z,86.33
2023-12-11T16:32:38.967Z,87.00
2023-12-11T16:35:01.824Z,86.76
2023-12-11T16:37:24.575Z,86.58
2023-12-11T16:39:49.526Z,86.21
2023-12-11T16:42:15.373Z,86.03
2023-12-11T16:44:38.388Z,86.60
2023-12-11T16:47:01.143Z,86.97
2023-12-11T16:49:24.007Z,87.35
2023-12-11T16:51:46.858Z,87.12
2023-12-11T16:54:13.692Z,87.23
2023-12-11T16:56:36.811Z,87.13
2023-12-11T16:58:59.758Z,87.08
2023-12-11T17:01:22.550Z,87.27
2023-12-11T17:03:45.645Z,87.52
2023-12-11T17:06:17.449Z,87.32
2023-12-11T17:08:40.428Z,87.47
2023-12-11T17:11:03.103Z,87.55
2023-12-11T17:13:25.806Z,87.29
2023-12-11T17:15:48.964Z,86.75
2023-12-11T17:18:15.507Z,86.72
2023-12-11T17:20:38.618Z,86.85
2023-12-11T17:23:01.373Z,87.44
2023-12-11T17:25:24.114Z,87.51
2023-12-11T17:27:46.763Z,87.36
2023-12-11T17:30:11.289Z,87.72
2023-12-11T17:32:36.528Z,87.89
2023-12-11T17:34:59.499Z,88.31
2023-12-11T17:37:24.571Z,88.35
2023-12-11T17:39:47.285Z,88.94
2023-12-11T17:42:10.007Z,88.92
2023-12-11T17:44:32.712Z,88.63
2023-12-11T17:46:57.169Z,88.44
2023-12-11T17:49:19.947Z,88.76
2023-12-11T17:51:42.837Z,88.32
2023-12-11T17:54:05.541Z,88.21
2023-12-11T17:56:28.237Z,88.24
2023-12-11T17:58:50.858Z,88.66
2023-12-11T18:01:14.180Z,89.19
2023-12-11T18:03:37.156Z,89.54
2023-12-11T18:06:00.051Z,89.68
2023-12-11T18:08:22.764Z,89.54
2023-12-11T18:10:46.310Z,89.19
2023-12-11T18:13:09.255Z,89.18
2023-12-11T18:15:31.982Z,89.71
2023-12-11T18:17:54.715Z,89.57
2023-12-11T18:20:17.751Z,89.85
2023-12-11T18:22:40.899Z,89.97
2023-12-11T18:25:04.167Z,90.38
2023-12-11T18:27:26.995Z,90.43
2023-12-11T18:29:49.705Z,89.99
2023-12-11T18:32:13.355Z,90.44
2023-12-11T18:34:43.374Z,90.88
2023-12-11T18:37:15.046Z,90.85
2023-12-11T18:39:37.757Z,90.95
2023-12-11T18:42:00.909Z,90.95
2023-12-11T18:44:23.783Z,91.08
2023-12-11T18:46:46.773Z,91.02
2023-12-11T18:49:10.283Z,91.19
2023-12-11T18:51:33.372Z,91.16
2023-12-11T18:53:57.151Z,90.99
2023-12-11T18:56:20.942Z,90.92
2023-12-11T18:58:44.726Z,90.73
2023-12-11T19:01:11.139Z,90.67
2023-12-11T19:03:34.239Z,90.81
2023-12-11T19:05:57.080Z,90.61
2023-12-11T19:08:20.199Z,90.33
2023-12-11T19:10:43.196Z,90.34
2023-12-11T19:13:06.161Z,90.33
2023-12-11T19:15:29.183Z,90.19
2023-12-11T19:17:52.498Z,89.83
2023-12-11T19:20:15.414Z,90.35
2023-12-11T19:22:38.240Z,90.51
2023-12-11T19:25:00.965Z,90.66
2023-12-11T19:27:26.382Z,90.58
2023-12-11T19:29:49.430Z,90.57
2023-12-11T19:32:13.557Z,90.75
2023-12-11T19:34:36.532Z,91.10
2023-12-11T19:37:01.120Z,91.02
2023-12-11T19:39:24.070Z,90.99
2023-12-11T19:41:46.751Z,91.14
2023-12-11T19:44:10.881Z,91.19
2023-12-11T19:46:33.613Z,91.32
2023-12-11T19:48:56.521Z,91.29
2023-12-11T19:51:19.631Z,91.26
2023-12-11T19:53:42.650Z,90.97
2023-12-11T19:56:05.956Z,90.57
2023-12-11T19:58:28.690Z,90.51
2023-12-11T20:00:51.634Z,90.46
2023-12-11T20:03:14.749Z,90.44
2023-12-11T20:05:38.131Z,90.49
2023-12-11T20:08:00.976Z,90.49
2023-12-11T20:10:23.971Z,90.58
2023-12-11T20:12:46.930Z,90.74
2023-12-11T20:15:13.291Z,90.59
2023-12-11T20:17:36.907Z,90.29
2023-12-11T20:20:05.468Z,90.84
2023-12-11T20:22:28.418Z,91.13
2023-12-11T20:24:51.187Z,91.29
2023-12-11T20:27:13.886Z,91.35
2023-12-11T20:29:36.615Z,91.15
2023-12-11T20:31:59.276Z,91.20
2023-12-11T20:34:22.111Z,91.26
2023-12-11T20:36:44.896Z,90.86
2023-12-11T20:39:08.384Z,90.81
2023-12-11T20:41:32.756Z,90.89
2023-12-11T20:44:04.581Z,91.05
2023-12-11T20:46:29.897Z,91.04
2023-12-11T20:48:54.117Z,91.25
2023-12-11T20:51:21.026Z,90.31
2023-12-11T20:53:44.578Z,89.88
2023-12-11T20:56:08.115Z,89.80
2023-12-11T20:58:30.913Z,89.43
2023-12-11T21:00:53.789Z,88.98
2023-12-11T21:03:16.656Z,88.97
2023-12-11T21:05:39.716Z,89.06
2023-12-11T21:08:02.598Z,89.03
2023-12-11T21:10:25.494Z,89.24
2023-12-11T21:12:48.333Z,89.56
2023-12-11T21:15:11.341Z,89.81
2023-12-11T21:17:34.321Z,89.63
2023-12-11T21:19:57.217Z,89.89
2023-12-11T21:22:20.071Z,90.04
2023-12-11T21:24:42.806Z,90.09
2023-12-11T21:27:05.521Z,90.23
2023-12-11T21:29:28.234Z,89.99
2023-12-11T21:31:51.007Z,89.82
2023-12-11T21:34:13.807Z,89.87
2023-12-11T21:36:37.082Z,90.16
2023-12-11T21:39:00.300Z,89.99
2023-12-11T21:41:23.318Z,89.81
2023-12-11T21:43:50.463Z,90.13
2023-12-11T21:46:13.526Z,90.22
2023-12-11T21:48:36.282Z,90.17
2023-12-11T21:50:58.945Z,89.59
2023-12-11T21:53:21.637Z,89.49
2023-12-11T21:55:44.291Z,89.36
2023-12-11T21:58:06.908Z,89.65
2023-12-11T22:00:29.599Z,89.40
2023-12-11T22:02:52.196Z,90.10
2023-12-11T22:05:15.024Z,90.44
2023-12-11T22:07:37.888Z,90.43
2023-12-11T22:10:00.681Z,90.31
2023-12-11T22:12:23.720Z,90.37
2023-12-11T22:14:47.005Z,90.40
2023-12-11T22:17:09.548Z,90.06
2023-12-11T22:19:32.286Z,90.16
2023-12-11T22:21:55.080Z,89.84
2023-12-11T22:24:19.998Z,89.72
2023-12-11T22:26:42.715Z,89.18
2023-12-11T22:29:05.247Z,89.59
2023-12-11T22:31:32.208Z,89.63
2023-12-11T22:33:54.832Z,89.46
2023-12-11T22:36:22.442Z,89.35
2023-12-11T22:38:45.346Z,88.62
2023-12-11T22:41:07.904Z,88.76
2023-12-11T22:43:30.480Z,88.53
2023-12-11T22:45:53.025Z,88.46
2023-12-11T22:48:17.479Z,88.52
2023-12-11T22:50:40.501Z,88.65
2023-12-11T22:53:03.087Z,88.38
2023-12-11T22:55:25.693Z,88.34
2023-12-11T22:57:50.379Z,88.28
2023-12-11T23:00:21.691Z,88.15
2023-12-11T23:02:44.546Z,88.50
2023-12-11T23:05:07.532Z,89.38
2023-12-11T23:07:30.402Z,89.24
2023-12-11T23:09:53.225Z,89.43
2023-12-11T23:12:18.245Z,89.50
2023-12-11T23:14:40.980Z,89.65
2023-12-11T23:17:04.329Z,89.41
2023-12-11T23:19:26.996Z,89.73
2023-12-11T23:21:50.605Z,89.68
2023-12-11T23:24:20.191Z,89.69
2023-12-11T23:26:43.060Z,89.88
2023-12-11T23:29:05.647Z,90.15
2023-12-11T23:31:28.287Z,90.45
2023-12-11T23:33:51.125Z,89.83
2023-12-11T23:36:15.261Z,90.56
2023-12-11T23:38:38.121Z,91.06
2023-12-11T23:41:00.804Z,90.88
2023-12-11T23:43:23.525Z,90.73
2023-12-11T23:45:46.796Z,90.51
2023-12-11T23:48:15.685Z,90.21
2023-12-11T23:50:38.590Z,90.30
2023-12-11T23:53:01.122Z,90.15
2023-12-11T23:55:23.790Z,90.36
2023-12-11T23:57:46.424Z,90.06
